Time;durP1;ratioP1;P1;durP2;ratioP2;P2;SDS_P1;SDS_P2;PMS_P1;PMS_P2;Temp;Humidity;BMP_temperature;BMP_pressure;BME280_temperature;BME280_humidity;BME280_pressure;Samples;Min_cycle;Max_cycle;Signal;HPM_P1;HPM_P2
2022/05/28 00:02:19;;;;;;;7.53;1.70;;;9.80;99.90;;;;;;5054457;28;20025;-70
2022/05/28 00:04:46;;;;;;;7.75;1.50;;;9.80;99.90;;;;;;5054202;28;20027;-69
2022/05/28 00:07:11;;;;;;;12.88;1.90;;;9.80;99.90;;;;;;5054166;28;20027;-70
2022/05/28 00:09:37;;;;;;;3.88;1.88;;;9.70;99.90;;;;;;5056685;28;20413;-69
2022/05/28 00:12:03;;;;;;;9.23;1.60;;;9.70;99.90;;;;;;5058640;28;20024;-69
2022/05/28 00:14:29;;;;;;;6.80;1.42;;;9.70;99.90;;;;;;5055422;28;20025;-69
2022/05/28 00:16:56;;;;;;;8.95;1.60;;;9.70;99.90;;;;;;5054641;28;20470;-69
2022/05/28 00:19:21;;;;;;;11.32;1.77;;;9.70;99.90;;;;;;5055082;28;20530;-70
2022/05/28 00:21:47;;;;;;;8.30;1.63;;;9.60;99.90;;;;;;5054755;28;20025;-70
2022/05/28 00:24:13;;;;;;;9.82;1.90;;;9.60;99.90;;;;;;5054671;28;20120;-70
2022/05/28 00:26:41;;;;;;;9.43;1.85;;;9.60;99.90;;;;;;5054196;28;20052;-70
2022/05/28 00:29:07;;;;;;;8.10;1.63;;;9.60;99.90;;;;;;5053671;28;20021;-70
2022/05/28 00:31:32;;;;;;;7.10;1.75;;;9.60;99.90;;;;;;5054137;28;20039;-71
2022/05/28 00:33:58;;;;;;;7.03;2.42;;;9.60;99.90;;;;;;5053435;28;20020;-70
2022/05/28 00:36:23;;;;;;;9.73;1.60;;;9.70;99.90;;;;;;5053611;28;20021;-70
2022/05/28 00:38:49;;;;;;;15.65;2.50;;;9.60;99.90;;;;;;5053771;28;20021;-70
2022/05/28 00:41:15;;;;;;;13.73;2.25;;;9.70;99.90;;;;;;5053062;28;20557;-70
2022/05/28 00:43:43;;;;;;;8.63;2.25;;;9.70;99.90;;;;;;5035605;28;20108;-70
2022/05/28 00:46:25;;;;;;;11.82;1.92;;;9.70;99.90;;;;;;5053521;28;20025;-70
2022/05/28 00:48:55;;;;;;;15.23;2.75;;;9.70;99.90;;;;;;5053698;28;20021;-70
2022/05/28 00:51:32;;;;;;;17.30;2.78;;;9.80;99.90;;;;;;5053409;28;20025;-70
2022/05/28 00:54:02;;;;;;;9.02;1.92;;;9.70;99.90;;;;;;5053383;28;20037;-70
2022/05/28 00:56:28;;;;;;;11.73;2.72;;;9.70;99.90;;;;;;5053304;28;20021;-70
2022/05/28 00:58:54;;;;;;;15.00;2.30;;;9.70;99.90;;;;;;5053286;28;20040;-70
2022/05/28 01:01:23;;;;;;;16.17;1.73;;;9.70;99.90;;;;;;5053130;28;20021;-69
2022/05/28 01:04:15;;;;;;;9.90;2.03;;;9.70;99.90;;;;;;5035104;28;20017;-70
2022/05/28 01:07:03;;;;;;;9.77;2.55;;;9.70;99.90;;;;;;5052853;28;20482;-70
2022/05/28 01:09:57;;;;;;;10.95;2.63;;;9.70;99.90;;;;;;5052890;28;20029;-70
2022/05/28 01:12:49;;;;;;;10.68;2.15;;;9.70;99.90;;;;;;5052909;28;20107;-69
2022/05/28 01:15:20;;;;;;;11.35;2.45;;;9.70;99.90;;;;;;5052834;28;20029;-69
2022/05/28 01:17:50;;;;;;;14.98;2.53;;;9.70;99.90;;;;;;5052900;28;20075;-69
2022/05/28 01:20:36;;;;;;;14.02;2.88;;;9.70;99.90;;;;;;5052894;28;20031;-69
2022/05/28 01:23:32;;;;;;;10.73;2.70;;;9.80;99.90;;;;;;5054395;28;20021;-70
2022/05/28 01:26:08;;;;;;;24.38;3.78;;;9.70;99.90;;;;;;5056949;28;20021;-70
2022/05/28 01:28:39;;;;;;;15.23;2.05;;;9.80;99.90;;;;;;5039023;28;20478;-70
2022/05/28 01:31:05;;;;;;;;;;;9.70;99.90;;;;;;5057775;28;20029;-69
2022/05/28 01:33:37;;;;;;;11.95;3.03;;;9.80;99.90;;;;;;5056984;28;19951;-69
2022/05/28 01:36:06;;;;;;;13.77;2.05;;;9.80;99.90;;;;;;5056916;28;20355;-70
2022/05/28 01:38:35;;;;;;;12.32;2.20;;;9.80;99.90;;;;;;5056915;28;20044;-69
2022/05/28 01:41:02;;;;;;;9.38;2.20;;;9.80;99.90;;;;;;5058056;28;20028;-70
2022/05/28 01:43:28;;;;;;;10.80;2.40;;;9.90;99.90;;;;;;5062315;28;20029;-69
2022/05/28 01:45:55;;;;;;;10.95;2.25;;;9.90;99.90;;;;;;5061011;28;20516;-69
2022/05/28 01:48:22;;;;;;;14.60;3.22;;;9.90;99.90;;;;;;5056389;28;20550;-69
2022/05/28 01:50:51;;;;;;;10.60;2.10;;;9.90;99.90;;;;;;5038410;28;20036;-70
2022/05/28 01:56:05;;;;;;;20.85;2.92;;;9.90;99.90;;;;;;5056231;28;20060;-70
2022/05/28 01:58:31;;;;;;;19.10;2.65;;;9.90;99.90;;;;;;5056198;28;20025;-69
2022/05/28 02:00:59;;;;;;;8.55;2.05;;;9.90;99.90;;;;;;5056463;28;20035;-69
2022/05/28 02:03:28;;;;;;;15.32;2.20;;;9.90;99.90;;;;;;5055944;28;20041;-70
2022/05/28 02:05:54;;;;;;;8.40;2.00;;;9.90;99.90;;;;;;5056124;28;20068;-70
2022/05/28 02:08:19;;;;;;;19.67;2.67;;;9.90;99.90;;;;;;5056129;28;20043;-70
2022/05/28 02:10:50;;;;;;;13.45;2.83;;;9.90;99.90;;;;;;5056323;28;20416;-70
2022/05/28 02:13:29;;;;;;;16.27;2.60;;;9.90;99.90;;;;;;5056520;28;20028;-70
2022/05/28 02:16:06;;;;;;;13.38;3.78;;;9.90;99.90;;;;;;5056446;28;20035;-70
2022/05/28 02:18:49;;;;;;;14.38;2.35;;;9.90;99.90;;;;;;5055942;28;20120;-69
2022/05/28 02:21:22;;;;;;;12.40;2.42;;;9.90;99.90;;;;;;5055787;28;20025;-70
2022/05/28 02:23:52;;;;;;;14.15;2.67;;;9.90;99.90;;;;;;5055972;28;20021;-70
2022/05/28 02:26:26;;;;;;;13.60;2.45;;;9.80;99.90;;;;;;5056250;28;20078;-70
2022/05/28 02:28:53;;;;;;;15.57;2.95;;;9.90;99.90;;;;;;5059115;28;20125;-70
2022/05/28 02:31:28;;;;;;;11.52;2.92;;;9.80;99.90;;;;;;5062150;28;20029;-70
2022/05/28 02:33:53;;;;;;;11.73;2.20;;;9.80;99.90;;;;;;5056230;28;20036;-69
2022/05/28 02:36:19;;;;;;;15.00;2.65;;;9.80;99.90;;;;;;5055582;28;20374;-70
2022/05/28 02:38:45;;;;;;;11.25;2.50;;;9.80;99.90;;;;;;5070183;22;20103;-53
2022/05/28 02:41:11;;;;;;;11.77;2.58;;;9.80;99.90;;;;;;5051595;28;20022;-52
2022/05/28 02:43:37;;;;;;;18.20;2.92;;;9.80;99.90;;;;;;5036082;28;20550;-54
2022/05/28 02:46:04;;;;;;;19.63;3.22;;;9.80;99.90;;;;;;5035427;28;20025;-50
2022/05/28 02:48:31;;;;;;;15.50;2.65;;;9.80;99.90;;;;;;5035458;28;20044;-50
2022/05/28 02:51:08;;;;;;;16.92;3.05;;;9.80;99.90;;;;;;5034382;28;20052;-54
2022/05/28 02:53:34;;;;;;;15.00;3.35;;;9.80;99.90;;;;;;5017866;28;20048;-52
2022/05/28 02:55:59;;;;;;;10.63;2.35;;;9.70;99.90;;;;;;5015733;28;20026;-50
2022/05/28 02:58:26;;;;;;;21.05;3.58;;;9.70;99.90;;;;;;5015982;28;20554;-51
2022/05/28 03:00:52;;;;;;;14.82;2.38;;;9.80;99.90;;;;;;5015647;28;20025;-51
2022/05/28 03:03:19;;;;;;;12.00;2.50;;;9.80;99.90;;;;;;5015328;28;20022;-50
2022/05/28 03:05:49;;;;;;;19.55;3.13;;;9.80;99.90;;;;;;5023226;28;20043;-52
2022/05/28 03:08:16;;;;;;;19.55;2.55;;;9.90;99.90;;;;;;5017695;28;20185;-51
2022/05/28 03:10:41;;;;;;;14.57;2.58;;;9.90;99.90;;;;;;5035286;28;20087;-50
2022/05/28 03:13:07;;;;;;;11.77;2.22;;;9.90;99.90;;;;;;5035203;28;20029;-51
2022/05/28 03:15:33;;;;;;;11.95;2.75;;;10.00;99.90;;;;;;5028581;28;20030;-51
2022/05/28 03:17:59;;;;;;;13.90;2.67;;;9.90;99.90;;;;;;5015431;28;20029;-50
2022/05/28 03:20:26;;;;;;;15.63;3.00;;;9.80;99.90;;;;;;5015706;28;20165;-50
2022/05/28 03:22:52;;;;;;;11.35;2.45;;;9.90;99.90;;;;;;5015283;28;20395;-51
2022/05/28 03:25:18;;;;;;;18.92;2.50;;;9.90;99.90;;;;;;5034274;28;20112;-51
2022/05/28 03:27:43;;;;;;;23.42;2.63;;;9.90;99.90;;;;;;5035018;28;20359;-52
2022/05/28 03:30:10;;;;;;;15.10;2.95;;;9.90;99.90;;;;;;5035334;28;20387;-55
2022/05/28 03:32:36;;;;;;;17.95;3.30;;;9.90;99.90;;;;;;5028961;28;20041;-50
2022/05/28 03:35:02;;;;;;;12.30;2.35;;;10.00;99.90;;;;;;5050576;28;20025;-51
2022/05/28 03:37:27;;;;;;;20.10;3.30;;;10.00;99.90;;;;;;5034681;28;20421;-50
2022/05/28 03:39:53;;;;;;;10.13;2.88;;;9.90;99.90;;;;;;5034951;28;20036;-52
2022/05/28 03:42:19;;;;;;;13.80;2.90;;;10.00;99.90;;;;;;5022682;28;20113;-51
2022/05/28 03:44:44;;;;;;;14.85;2.20;;;10.00;99.90;;;;;;5034531;28;20025;-52
2022/05/28 03:47:10;;;;;;;9.65;2.38;;;10.00;99.90;;;;;;5034042;28;20026;-51
2022/05/28 03:49:38;;;;;;;13.05;2.85;;;10.10;99.90;;;;;;5034767;28;20443;-50
2022/05/28 03:52:05;;;;;;;13.13;2.58;;;10.00;99.90;;;;;;5034391;28;20021;-50
2022/05/28 03:54:31;;;;;;;14.90;2.28;;;10.10;99.90;;;;;;5034238;28;20029;-51
2022/05/28 03:57:00;;;;;;;16.42;2.55;;;10.10;99.90;;;;;;5016629;28;20021;-51
2022/05/28 03:59:26;;;;;;;11.23;2.22;;;10.10;99.90;;;;;;5034417;28;20393;-50
2022/05/28 04:01:53;;;;;;;16.35;2.50;;;10.20;99.90;;;;;;5034033;28;20025;-52
2022/05/28 04:04:19;;;;;;;13.82;3.30;;;10.20;99.90;;;;;;5034212;28;20030;-51
2022/05/28 04:06:44;;;;;;;13.63;2.75;;;10.30;99.90;;;;;;5034197;28;20028;-52
2022/05/28 04:09:10;;;;;;;10.88;2.78;;;10.30;99.90;;;;;;5034193;28;20071;-53
2022/05/28 04:11:36;;;;;;;28.05;3.03;;;10.40;99.90;;;;;;5033857;28;20459;-51
2022/05/28 04:14:02;;;;;;;9.43;2.40;;;10.40;99.90;;;;;;5034319;28;20080;-50
2022/05/28 04:16:27;;;;;;;18.95;3.80;;;10.40;99.90;;;;;;5034313;28;20407;-53
2022/05/28 04:18:53;;;;;;;13.32;3.50;;;10.40;99.90;;;;;;5034010;28;20053;-50
2022/05/28 04:21:18;;;;;;;15.50;3.28;;;10.50;99.90;;;;;;5016021;28;20455;-54
2022/05/28 04:23:44;;;;;;;8.43;2.50;;;10.50;99.90;;;;;;5016158;28;20093;-52
2022/05/28 04:26:10;;;;;;;17.83;2.88;;;10.50;99.90;;;;;;5016341;28;20036;-52
2022/05/28 04:28:36;;;;;;;17.13;3.42;;;10.50;99.90;;;;;;5033867;28;20494;-51
2022/05/28 04:31:01;;;;;;;14.43;3.40;;;10.40;99.90;;;;;;5034040;28;20079;-52
2022/05/28 04:33:27;;;;;;;20.75;3.63;;;10.50;99.90;;;;;;5033551;28;20032;-51
2022/05/28 04:35:53;;;;;;;20.73;2.92;;;10.50;99.90;;;;;;5033662;28;20348;-52
2022/05/28 04:38:18;;;;;;;15.40;3.03;;;10.50;99.90;;;;;;5033972;28;20375;-51
2022/05/28 04:40:44;;;;;;;16.20;3.00;;;10.50;99.90;;;;;;5033817;28;20388;-54
2022/05/28 04:43:09;;;;;;;18.15;3.60;;;10.50;99.90;;;;;;5033628;28;20036;-50
2022/05/28 04:45:35;;;;;;;20.88;2.97;;;10.60;99.90;;;;;;5033368;28;20449;-51
2022/05/28 04:48:01;;;;;;;19.00;3.50;;;10.60;99.90;;;;;;5033517;28;20025;-51
2022/05/28 04:50:26;;;;;;;15.85;3.65;;;10.50;99.90;;;;;;5033371;28;20108;-50
2022/05/28 04:52:52;;;;;;;21.75;3.67;;;10.50;99.90;;;;;;5034030;28;20061;-51
2022/05/28 04:55:18;;;;;;;21.02;2.97;;;10.50;99.90;;;;;;5015513;28;20108;-54
2022/05/28 04:57:44;;;;;;;15.65;3.67;;;10.60;99.90;;;;;;5033487;28;20021;-51
2022/05/28 05:00:15;;;;;;;17.65;3.50;;;10.50;99.90;;;;;;5015461;28;20487;-50
2022/05/28 05:02:40;;;;;;;19.98;3.95;;;10.50;99.90;;;;;;5033007;28;20395;-53
2022/05/28 05:05:06;;;;;;;24.85;4.03;;;10.50;99.90;;;;;;5016113;28;20033;-51
2022/05/28 05:07:32;;;;;;;12.75;3.10;;;10.30;99.90;;;;;;5030115;28;20079;-50
2022/05/28 05:09:58;;;;;;;14.18;3.97;;;10.20;99.90;;;;;;5020851;28;20033;-50
2022/05/28 05:12:24;;;;;;;12.23;3.13;;;10.10;99.90;;;;;;5023389;28;20049;-53
2022/05/28 05:14:49;;;;;;;20.25;4.85;;;10.20;99.90;;;;;;5004016;28;20022;-50
2022/05/28 05:17:15;;;;;;;13.98;3.97;;;10.20;99.90;;;;;;5015504;28;20042;-50
2022/05/28 05:19:41;;;;;;;15.52;3.55;;;10.20;99.90;;;;;;5013534;28;20387;-51
2022/05/28 05:22:06;;;;;;;17.38;3.58;;;10.10;99.90;;;;;;5013087;28;20026;-51
2022/05/28 05:24:33;;;;;;;16.80;3.97;;;10.10;99.90;;;;;;5013607;28;20505;-50
2022/05/28 05:27:00;;;;;;;18.75;3.83;;;10.10;99.90;;;;;;5013087;28;20025;-51
2022/05/28 05:29:26;;;;;;;17.23;3.35;;;10.10;99.90;;;;;;5013673;28;20060;-51
2022/05/28 05:31:52;;;;;;;15.23;3.33;;;10.20;99.90;;;;;;5013202;28;20026;-50
2022/05/28 05:34:17;;;;;;;15.60;3.15;;;10.30;99.90;;;;;;5013186;28;20030;-51
2022/05/28 05:36:43;;;;;;;19.00;3.45;;;10.40;99.90;;;;;;5013450;28;20026;-54
2022/05/28 05:39:09;;;;;;;12.18;2.65;;;10.50;99.90;;;;;;5013308;28;20380;-54
2022/05/28 05:41:38;;;;;;;15.15;3.58;;;10.70;99.90;;;;;;5013198;28;20097;-52
2022/05/28 05:44:04;;;;;;;17.38;3.42;;;10.80;99.90;;;;;;5013320;28;20026;-53
2022/05/28 05:46:29;;;;;;;22.83;3.70;;;10.90;99.90;;;;;;5013668;28;20029;-53
2022/05/28 05:48:55;;;;;;;15.85;3.25;;;11.00;99.90;;;;;;5013424;28;20041;-52
2022/05/28 05:51:21;;;;;;;18.58;3.45;;;11.10;99.90;;;;;;5013405;28;20022;-53
2022/05/28 05:53:46;;;;;;;14.43;3.53;;;11.30;99.90;;;;;;5013454;28;20130;-51
2022/05/28 05:56:12;;;;;;;18.98;3.78;;;11.30;99.90;;;;;;5013450;28;20080;-53
2022/05/28 05:58:38;;;;;;;17.77;4.00;;;11.30;99.90;;;;;;5013911;28;20030;-52
2022/05/28 06:01:05;;;;;;;15.25;3.78;;;11.40;99.90;;;;;;5012986;28;20034;-52
2022/05/28 06:03:31;;;;;;;16.10;3.83;;;11.40;99.90;;;;;;5013258;28;20018;-50
2022/05/28 06:05:59;;;;;;;16.83;2.92;;;11.50;99.90;;;;;;5013396;28;20022;-49
2022/05/28 06:08:25;;;;;;;13.60;3.38;;;11.50;99.90;;;;;;5013922;28;20026;-49
2022/05/28 06:10:50;;;;;;;19.15;3.80;;;11.60;99.90;;;;;;5016961;28;20033;-50
2022/05/28 06:13:16;;;;;;;13.15;3.15;;;11.70;99.90;;;;;;5017136;28;20467;-53
2022/05/28 06:15:42;;;;;;;13.63;3.90;;;11.80;99.90;;;;;;5016529;28;20041;-53
2022/05/28 06:18:07;;;;;;;10.60;2.72;;;11.80;99.90;;;;;;5016621;28;20398;-50
2022/05/28 06:20:34;;;;;;;11.25;3.00;;;11.90;99.90;;;;;;5016822;28;20026;-54
2022/05/28 06:23:01;;;;;;;21.20;3.50;;;12.00;99.90;;;;;;5016265;28;20022;-51
2022/05/28 06:25:27;;;;;;;19.65;3.80;;;11.90;99.90;;;;;;5016851;28;20033;-51
2022/05/28 06:27:53;;;;;;;15.93;3.13;;;12.00;99.90;;;;;;5016325;28;20026;-50
2022/05/28 06:30:18;;;;;;;10.02;2.70;;;12.00;99.90;;;;;;4998677;28;20032;-50
2022/05/28 06:32:44;;;;;;;14.90;3.30;;;12.20;99.90;;;;;;5016461;28;20541;-50
2022/05/28 06:35:10;;;;;;;16.70;3.13;;;12.30;99.90;;;;;;5016409;28;20030;-52
2022/05/28 06:37:36;;;;;;;14.93;3.35;;;12.30;99.90;;;;;;5016987;28;20586;-53
2022/05/28 06:40:03;;;;;;;14.63;3.08;;;12.40;99.90;;;;;;5018389;28;20480;-50
2022/05/28 06:42:28;;;;;;;14.02;2.60;;;12.30;99.90;;;;;;4999832;28;20022;-50
2022/05/28 06:44:55;;;;;;;13.25;3.20;;;12.20;99.90;;;;;;5016671;28;20048;-51
2022/05/28 06:47:21;;;;;;;11.77;2.97;;;12.30;99.90;;;;;;4998825;28;20026;-53
2022/05/28 06:51:01;;;;;;;18.02;3.38;;;12.30;99.90;;;;;;4999018;28;20037;-50
2022/05/28 06:52:33;;;;;;;17.52;3.67;;;12.30;99.90;;;;;;5015812;28;20053;-50
2022/05/28 06:54:59;;;;;;;18.05;3.20;;;12.30;99.90;;;;;;5015848;28;20030;-50
2022/05/28 06:57:24;;;;;;;17.80;3.55;;;12.40;99.90;;;;;;5023600;28;20502;-52
2022/05/28 06:59:50;;;;;;;15.43;3.70;;;12.40;99.90;;;;;;5036007;28;20045;-55
2022/05/28 07:02:15;;;;;;;21.50;3.80;;;12.40;99.90;;;;;;5035529;28;20029;-50
2022/05/28 07:04:41;;;;;;;23.25;3.53;;;12.40;99.90;;;;;;5035787;28;20168;-51
2022/05/28 07:07:07;;;;;;;20.40;3.63;;;12.50;99.90;;;;;;5035892;28;20123;-52
2022/05/28 07:09:32;;;;;;;18.67;3.80;;;12.70;99.90;;;;;;5035965;28;20135;-51
2022/05/28 07:11:58;;;;;;;16.90;2.78;;;13.00;99.90;;;;;;5035629;28;20021;-53
2022/05/28 07:14:23;;;;;;;18.17;2.88;;;13.20;99.90;;;;;;5036279;28;20056;-54
2022/05/28 07:16:49;;;;;;;16.60;3.72;;;13.30;99.90;;;;;;5034595;28;20022;-53
2022/05/28 07:19:14;;;;;;;21.90;3.53;;;13.30;99.90;;;;;;5035395;28;20107;-55
2022/05/28 07:21:40;;;;;;;14.50;3.47;;;13.30;99.90;;;;;;5033128;28;20022;-54
2022/05/28 07:24:06;;;;;;;18.33;4.07;;;13.30;99.90;;;;;;5036163;28;20044;-54
2022/05/28 07:26:31;;;;;;;22.65;3.40;;;13.40;99.90;;;;;;5035579;28;20025;-51
2022/05/28 07:28:57;;;;;;;15.05;3.47;;;13.60;99.90;;;;;;5035451;28;20121;-53
2022/05/28 07:31:22;;;;;;;23.83;4.28;;;13.60;99.90;;;;;;5035220;28;20036;-55
2022/05/28 07:33:50;;;;;;;19.55;3.85;;;13.40;99.90;;;;;;5013259;28;20026;-55
2022/05/28 07:36:21;;;;;;;8.23;3.15;;;13.00;99.90;;;;;;5016842;28;20120;-54
2022/05/28 07:38:47;;;;;;;;;;;12.80;99.90;;;;;;5035072;28;20061;-52
2022/05/28 07:41:16;;;;;;;24.33;5.25;;;12.50;99.90;;;;;;5034829;28;19999;-53
2022/05/28 07:43:43;;;;;;;16.63;4.32;;;12.30;99.90;;;;;;5035422;28;20393;-54
2022/05/28 07:46:13;;;;;;;16.55;4.53;;;12.20;99.90;;;;;;5036139;28;20109;-53
2022/05/28 07:48:39;;;;;;;22.58;4.38;;;12.10;99.90;;;;;;5035875;28;20352;-54
2022/05/28 07:51:05;;;;;;;21.80;5.63;;;12.30;99.90;;;;;;5035495;28;20036;-52
2022/05/28 07:53:30;;;;;;;19.80;4.22;;;12.50;99.90;;;;;;5035250;28;20516;-52
2022/05/28 07:55:58;;;;;;;18.27;4.85;;;12.60;99.90;;;;;;5034929;28;20060;-54
2022/05/28 07:58:24;;;;;;;12.13;4.07;;;12.80;99.90;;;;;;5034121;28;20387;-53
2022/05/28 08:00:49;;;;;;;15.30;3.70;;;13.00;99.90;;;;;;5034592;28;20021;-52
2022/05/28 08:03:16;;;;;;;13.82;3.35;;;13.20;99.90;;;;;;5034600;28;20389;-52
2022/05/28 08:05:45;;;;;;;18.17;3.63;;;13.50;99.90;;;;;;5034517;28;20029;-53
2022/05/28 08:08:11;;;;;;;15.05;3.20;;;13.60;99.90;;;;;;5034110;28;20065;-51
2022/05/28 08:10:37;;;;;;;14.80;3.33;;;13.60;99.90;;;;;;5034524;28;20056;-51
2022/05/28 08:13:09;;;;;;;13.43;4.03;;;13.50;99.90;;;;;;5033989;28;20029;-51
2022/05/28 08:15:37;;;;;;;16.90;2.85;;;13.40;99.90;;;;;;5000357;28;20045;-55
2022/05/28 08:18:03;;;;;;;18.15;4.57;;;13.50;99.90;;;;;;5034170;28;20032;-53
2022/05/28 08:23:13;;;;;;;22.55;4.35;;;13.40;99.90;;;;;;5034521;28;20043;-54
2022/05/28 08:25:39;;;;;;;15.02;3.35;;;13.50;99.90;;;;;;5035571;28;20026;-50
2022/05/28 08:28:06;;;;;;;18.60;3.92;;;13.60;99.90;;;;;;5034116;28;20029;-53
2022/05/28 08:30:32;;;;;;;15.63;2.92;;;13.90;99.90;;;;;;5034506;28;20025;-50
2022/05/28 08:32:58;;;;;;;15.82;2.85;;;14.00;99.90;;;;;;5033691;28;20033;-50
2022/05/28 08:35:24;;;;;;;21.73;3.25;;;14.20;99.90;;;;;;5034196;28;20035;-54
2022/05/28 08:37:49;;;;;;;15.25;2.75;;;14.20;99.90;;;;;;5069873;22;20044;-70
2022/05/28 08:40:15;;;;;;;16.83;3.10;;;14.10;99.90;;;;;;5073461;28;20496;-70
2022/05/28 08:42:41;;;;;;;14.20;2.95;;;14.00;99.90;;;;;;5055440;28;20017;-70
2022/05/28 08:45:09;;;;;;;15.77;3.58;;;13.90;99.90;;;;;;5073270;28;20036;-70
2022/05/28 08:47:42;;;;;;;14.82;2.97;;;13.80;99.90;;;;;;5068314;28;20102;-70
2022/05/28 08:50:08;;;;;;;12.23;2.63;;;13.80;99.90;;;;;;5035443;28;20024;-70
2022/05/28 08:52:55;;;;;;;15.55;2.42;;;13.40;99.90;;;;;;5053462;28;20067;-71
2022/05/28 08:55:24;;;;;;;7.47;2.30;;;13.00;99.90;;;;;;5053321;28;20037;-71
2022/05/28 08:58:00;;;;;;;20.38;2.75;;;12.70;99.90;;;;;;5035253;28;20025;-70
2022/05/28 09:00:43;;;;;;;11.43;3.95;;;12.60;99.90;;;;;;5053737;28;20036;-70
2022/05/28 09:03:08;;;;;;;17.88;3.42;;;12.60;99.90;;;;;;5053496;28;20028;-70
2022/05/28 09:05:51;;;;;;;12.80;3.60;;;12.70;99.90;;;;;;5035405;28;20029;-71
2022/05/28 09:08:32;;;;;;;23.80;3.65;;;12.90;99.90;;;;;;5052124;28;20171;-70
2022/05/28 09:11:03;;;;;;;12.90;3.25;;;13.10;99.90;;;;;;5053589;28;20017;-70
2022/05/28 09:13:38;;;;;;;25.98;3.72;;;13.20;99.90;;;;;;5060887;28;20033;-69
2022/05/28 09:16:07;;;;;;;26.80;3.10;;;13.40;99.90;;;;;;5058497;28;20021;-70
2022/05/28 09:18:36;;;;;;;15.65;3.38;;;13.50;99.90;;;;;;5053576;28;20025;-70
2022/05/28 09:21:03;;;;;;;14.70;3.70;;;13.60;99.90;;;;;;5053838;28;20025;-70
2022/05/28 09:23:41;;;;;;;15.52;3.95;;;13.70;99.90;;;;;;5053478;28;20312;-70
2022/05/28 09:26:07;;;;;;;17.40;3.67;;;13.90;99.90;;;;;;5053333;28;20028;-69
2022/05/28 09:28:50;;;;;;;18.70;2.92;;;14.00;99.90;;;;;;5053346;28;20025;-70
2022/05/28 09:31:25;;;;;;;10.98;3.13;;;14.20;99.90;;;;;;5052780;28;20094;-70
2022/05/28 09:34:12;;;;;;;11.02;3.35;;;14.50;99.90;;;;;;5052987;28;20035;-69
2022/05/28 09:36:56;;;;;;;18.08;3.70;;;14.50;99.90;;;;;;5053535;28;20033;-70
2022/05/28 09:39:41;;;;;;;12.15;2.83;;;14.50;99.90;;;;;;5052761;28;20032;-70
2022/05/28 09:42:43;;;;;;;12.95;2.85;;;14.70;99.90;;;;;;5052942;28;20075;-71
2022/05/28 09:45:29;;;;;;;13.32;2.55;;;15.00;99.90;;;;;;5037916;28;20029;-71
2022/05/28 09:47:55;;;;;;;13.23;2.00;;;15.20;99.90;;;;;;5056479;28;20482;-71
2022/05/28 09:50:30;;;;;;;13.50;2.60;;;15.20;99.90;;;;;;5056650;28;20102;-71
2022/05/28 09:56:02;;;;;;;15.80;2.50;;;14.80;99.90;;;;;;5014447;28;20053;-71
2022/05/28 09:58:34;;;;;;;12.48;3.13;;;14.60;99.90;;;;;;5048796;28;20033;-72
2022/05/28 10:01:10;;;;;;;9.63;2.47;;;14.40;99.90;;;;;;5056797;28;20029;-72
2022/05/28 10:06:25;;;;;;;15.93;3.45;;;14.00;99.90;;;;;;5056883;28;20087;-70
2022/05/28 10:08:51;;;;;;;9.60;2.50;;;14.00;99.90;;;;;;5056227;28;20021;-70
2022/05/28 10:11:22;;;;;;;10.23;2.67;;;14.00;99.90;;;;;;5056532;28;20032;-70
2022/05/28 10:13:49;;;;;;;12.45;2.83;;;14.10;99.90;;;;;;5038416;28;20386;-70
2022/05/28 10:16:37;;;;;;;14.77;5.00;;;14.00;99.90;;;;;;5056104;28;20025;-71
2022/05/28 10:19:03;;;;;;;7.50;2.30;;;13.90;99.90;;;;;;5055594;28;20021;-70
2022/05/28 10:21:33;;;;;;;13.93;2.65;;;14.00;99.90;;;;;;5055682;28;20032;-70
2022/05/28 10:24:13;;;;;;;7.07;1.98;;;14.20;99.90;;;;;;5056320;28;20033;-70
2022/05/28 10:26:43;;;;;;;14.65;3.25;;;14.30;99.90;;;;;;5056238;28;20083;-70
2022/05/28 10:29:24;;;;;;;13.23;2.67;;;14.40;99.90;;;;;;5055992;28;20028;-69
2022/05/28 10:31:52;;;;;;;16.65;3.22;;;14.30;99.90;;;;;;5056017;28;20462;-69
2022/05/28 10:34:36;;;;;;;12.68;2.60;;;14.10;99.90;;;;;;5056267;28;20075;-69
2022/05/28 10:37:13;;;;;;;17.15;2.40;;;13.60;99.90;;;;;;5056206;28;20385;-69
2022/05/28 10:39:39;;;;;;;6.40;2.80;;;13.10;99.90;;;;;;5056255;28;20481;-70
2022/05/28 10:42:09;;;;;;;19.65;3.22;;;12.70;99.90;;;;;;5056071;28;20445;-70
2022/05/28 10:44:36;;;;;;;13.20;3.20;;;12.40;99.90;;;;;;5056306;28;20097;-70
2022/05/28 10:47:20;;;;;;;14.52;3.45;;;12.20;99.90;;;;;;5046211;28;20056;-69
2022/05/28 10:50:18;;;;;;;20.05;3.90;;;12.10;99.90;;;;;;5041932;28;20157;-69
2022/05/28 10:52:53;;;;;;;10.30;3.75;;;12.00;99.90;;;;;;5036911;28;20331;-70
2022/05/28 10:55:35;;;;;;;23.60;4.00;;;12.00;99.90;;;;;;5042250;28;20068;-70
2022/05/28 10:58:11;;;;;;;;;;;12.30;99.90;;;;;;5031494;28;20368;-70
2022/05/28 11:00:45;;;;;;;15.90;3.90;;;12.50;99.90;;;;;;5048585;28;19916;-69
2022/05/28 11:03:24;;;;;;;18.42;3.67;;;12.70;99.90;;;;;;5038134;28;20067;-69
2022/05/28 11:06:27;;;;;;;24.98;3.30;;;13.00;99.90;;;;;;5058573;28;20104;-69
2022/05/28 11:09:14;;;;;;;21.48;3.05;;;13.20;99.90;;;;;;5061812;28;20025;-69
2022/05/28 11:11:55;;;;;;;16.40;3.13;;;13.50;99.90;;;;;;5062275;28;20037;-69
2022/05/28 11:15:09;;;;;;;15.43;2.88;;;13.70;99.90;;;;;;5061685;28;20025;-69
2022/05/28 11:17:56;;;;;;;9.88;2.28;;;14.00;99.90;;;;;;5056347;28;20025;-68
2022/05/28 11:20:51;;;;;;;9.52;2.60;;;14.10;99.90;;;;;;5050434;28;20443;-69
2022/05/28 11:23:39;;;;;;;15.18;3.40;;;14.20;99.90;;;;;;5032660;28;20040;-69
2022/05/28 11:26:15;;;;;;;13.13;3.40;;;14.30;99.90;;;;;;5045171;28;20474;-69
2022/05/28 11:28:58;;;;;;;17.63;2.72;;;14.40;99.90;;;;;;5055633;28;20036;-70
2022/05/28 11:31:58;;;;;;;15.45;3.38;;;14.30;99.90;;;;;;5055480;28;20057;-69
2022/05/28 11:34:37;;;;;;;15.05;3.30;;;14.30;99.90;;;;;;5057172;28;20041;-69
2022/05/28 11:37:10;;;;;;;17.67;3.28;;;14.40;99.90;;;;;;5062158;28;20029;-69
2022/05/28 11:39:50;;;;;;;13.68;2.10;;;14.70;99.90;;;;;;5051414;28;20025;-70
2022/05/28 11:42:34;;;;;;;8.18;2.28;;;15.00;99.90;;;;;;5049647;28;20027;-70
2022/05/28 11:45:04;;;;;;;11.23;2.58;;;15.20;99.90;;;;;;5055443;28;20554;-70
2022/05/28 11:47:48;;;;;;;10.80;2.58;;;15.30;99.90;;;;;;5055605;28;20032;-69
2022/05/28 11:53:35;;;;;;;8.20;2.20;;;15.50;99.90;;;;;;5055373;28;20098;-69
2022/05/28 11:56:18;;;;;;;13.50;2.60;;;15.50;99.90;;;;;;5036882;28;20025;-70
2022/05/28 11:58:59;;;;;;;8.38;2.47;;;15.30;99.90;;;;;;5054782;28;20082;-69
2022/05/28 12:01:31;;;;;;;15.05;3.20;;;15.40;99.90;;;;;;5055260;28;20348;-69
2022/05/28 12:03:57;;;;;;;10.55;2.47;;;15.50;99.90;;;;;;5055382;28;20089;-70
2022/05/28 12:06:31;;;;;;;11.32;2.58;;;15.60;99.90;;;;;;5055136;28;20025;-69
2022/05/28 12:09:04;;;;;;;14.27;3.10;;;15.50;99.90;;;;;;5054973;28;20031;-69
2022/05/28 12:11:30;;;;;;;12.52;2.38;;;15.50;99.90;;;;;;5024967;28;20053;-69
2022/05/28 12:13:59;;;;;;;17.08;3.08;;;15.20;99.90;;;;;;5054799;28;20437;-69
2022/05/28 12:16:33;;;;;;;11.13;2.10;;;15.10;99.90;;;;;;5036615;28;20135;-69
2022/05/28 12:19:07;;;;;;;13.57;2.70;;;15.00;99.90;;;;;;5054287;28;20036;-70
2022/05/28 12:21:37;;;;;;;15.10;2.20;;;15.10;99.90;;;;;;5054467;28;20033;-70
2022/05/28 12:24:07;;;;;;;12.40;3.00;;;15.10;99.90;;;;;;5059936;28;20481;-69
2022/05/28 12:26:48;;;;;;;10.00;2.13;;;15.10;99.90;;;;;;5057169;28;20033;-70
2022/05/28 12:29:38;;;;;;;10.75;2.78;;;15.40;99.90;;;;;;5054173;28;20084;-69
2022/05/28 12:32:19;;;;;;;8.47;2.77;;;15.40;99.90;;;;;;5054391;28;20071;-69
2022/05/28 12:34:50;;;;;;;10.27;2.03;;;15.20;99.90;;;;;;5036170;28;20389;-69
2022/05/28 12:37:20;;;;;;;9.65;1.70;;;15.10;99.90;;;;;;5053775;28;20082;-69
2022/05/28 12:40:13;;;;;;;7.65;2.65;;;15.10;99.90;;;;;;5053398;28;20096;-69
2022/05/28 12:42:40;;;;;;;16.45;2.30;;;15.20;99.90;;;;;;5042811;28;20054;-69
2022/05/28 12:45:32;;;;;;;6.82;2.63;;;15.10;99.90;;;;;;5033555;28;20391;-69
2022/05/28 12:48:15;;;;;;;6.95;2.35;;;15.30;99.90;;;;;;5033882;28;20037;-70
2022/05/28 12:50:47;;;;;;;8.63;2.20;;;15.40;99.90;;;;;;5015806;28;20025;-70
2022/05/28 12:53:19;;;;;;;11.15;2.08;;;15.50;99.90;;;;;;5033724;28;20032;-69
2022/05/28 12:55:46;;;;;;;9.77;2.28;;;15.40;99.90;;;;;;5033676;28;20292;-70
2022/05/28 12:58:22;;;;;;;10.35;2.33;;;15.30;99.90;;;;;;5033398;28;20022;-71
2022/05/28 13:00:54;;;;;;;11.60;2.60;;;15.30;99.90;;;;;;5015705;28;20075;-70
2022/05/28 13:03:22;;;;;;;6.00;1.70;;;15.30;99.90;;;;;;5033389;28;20018;-69
2022/05/28 13:05:52;;;;;;;8.20;2.03;;;15.60;99.90;;;;;;5033574;28;20026;-70
2022/05/28 13:08:26;;;;;;;9.32;2.10;;;15.80;99.90;;;;;;5033235;28;20025;-69
2022/05/28 13:10:55;;;;;;;9.70;2.30;;;15.90;99.90;;;;;;5033286;28;20381;-69
2022/05/28 13:13:48;;;;;;;7.00;1.52;;;16.20;99.90;;;;;;5041722;28;20026;-70
2022/05/28 13:16:43;;;;;;;11.15;2.38;;;16.20;99.90;;;;;;5015076;28;20067;-70